PAL113 RJCC-RJTT
Flight info
| Callsign | PAL113 |
|---|---|
| Flight time | 1h 22m |
| Altitude | 38000 |
| Route | TOBBY Y10 GODIN |
| Aircraft | B77W/H-SDE1E2E3FGHIJ2J3J4J5M1RWXY/LB1D1 |
Departure
| Time | 2026-05-08 11:53 |
|---|---|
| Airport | New Chitose Airport (RJCC) |
Arrival
| Time | 2026-05-08 13:16 |
|---|---|
| Airport | Tokyo Haneda International Airport (RJTT) |
| Time | Latitude | Longitude | Altitude | Speed | Heading |
|---|---|---|---|---|---|
| 2026-05-08 11:25 | 42.78664 | 141.68282 | 97 ft | 0 kts | 285° |
| 2026-05-08 11:44 | 42.78664 | 141.68283 | 97 ft | 0 kts | 285° |
| 2026-05-08 11:44 | 42.78660 | 141.68301 | 96 ft | 2 kts | 285° |
| 2026-05-08 11:44 | 42.78656 | 141.68321 | 96 ft | 2 kts | 285° |
| 2026-05-08 11:44 | 42.78652 | 141.68339 | 95 ft | 2 kts | 285° |
| 2026-05-08 11:45 | 42.78648 | 141.68359 | 95 ft | 2 kts | 285° |
| 2026-05-08 11:45 | 42.78645 | 141.68379 | 94 ft | 1 kts | 290° |
| 2026-05-08 11:45 | 42.78639 | 141.68393 | 94 ft | 1 kts | 308° |
| 2026-05-08 11:45 | 42.78630 | 141.68405 | 93 ft | 1 kts | 326° |
| 2026-05-08 11:46 | 42.78620 | 141.68414 | 93 ft | 1 kts | 343° |
| 2026-05-08 11:46 | 42.78608 | 141.68417 | 93 ft | 1 kts | 1° |
| 2026-05-08 11:46 | 42.78596 | 141.68414 | 93 ft | 1 kts | 19° |
| 2026-05-08 11:46 | 42.78586 | 141.68410 | 93 ft | 0 kts | 35° |
| 2026-05-08 11:47 | 42.78584 | 141.68407 | 93 ft | 0 kts | 37° |
| 2026-05-08 11:49 | 42.78593 | 141.68416 | 92 ft | 4 kts | 29° |
| 2026-05-08 11:49 | 42.78625 | 141.68427 | 93 ft | 4 kts | 4° |
| 2026-05-08 11:49 | 42.78654 | 141.68425 | 93 ft | 3 kts | 356° |
| 2026-05-08 11:49 | 42.78678 | 141.68422 | 94 ft | 4 kts | 353° |
| 2026-05-08 11:50 | 42.78720 | 141.68416 | 93 ft | 7 kts | 353° |
| 2026-05-08 11:50 | 42.78780 | 141.68407 | 92 ft | 9 kts | 354° |
| 2026-05-08 11:50 | 42.78821 | 141.68401 | 92 ft | 6 kts | 355° |
| 2026-05-08 11:50 | 42.78863 | 141.68414 | 92 ft | 7 kts | 35° |
| 2026-05-08 11:51 | 42.78896 | 141.68472 | 91 ft | 8 kts | 64° |
| 2026-05-08 11:51 | 42.78918 | 141.68555 | 88 ft | 10 kts | 71° |
| 2026-05-08 11:51 | 42.78937 | 141.68643 | 86 ft | 9 kts | 87° |
| 2026-05-08 11:51 | 42.78912 | 141.68721 | 85 ft | 10 kts | 135° |
| 2026-05-08 11:52 | 42.78855 | 141.68788 | 84 ft | 11 kts | 146° |
| 2026-05-08 11:52 | 42.78790 | 141.68819 | 83 ft | 0 kts | 171° |
| 2026-05-08 11:52 | 42.78789 | 141.68819 | 83 ft | 0 kts | 171° |
| 2026-05-08 11:52 | 42.78764 | 141.68823 | 82 ft | 22 kts | 172° |
| 2026-05-08 11:53 | 42.78271 | 141.68907 | 81 ft | 117 kts | 172° |
| 2026-05-08 11:53 | 42.77270 | 141.69081 | 494 ft | 157 kts | 171° |
| 2026-05-08 11:53 | 42.76267 | 141.69276 | 1658 ft | 147 kts | 171° |
| 2026-05-08 11:53 | 42.75243 | 141.69481 | 2309 ft | 157 kts | 171° |
| 2026-05-08 11:54 | 42.74194 | 141.69694 | 3111 ft | 156 kts | 171° |
| 2026-05-08 11:54 | 42.73111 | 141.69914 | 3758 ft | 167 kts | 172° |
| 2026-05-08 11:54 | 42.71911 | 141.70158 | 4372 ft | 182 kts | 172° |
| 2026-05-08 11:54 | 42.70615 | 141.70421 | 4995 ft | 198 kts | 173° |
| 2026-05-08 11:55 | 42.69209 | 141.70703 | 5672 ft | 214 kts | 174° |
| 2026-05-08 11:55 | 42.67696 | 141.71007 | 6386 ft | 229 kts | 174° |
| 2026-05-08 11:55 | 42.66067 | 141.71332 | 7081 ft | 247 kts | 175° |
| 2026-05-08 11:55 | 42.64316 | 141.71683 | 7870 ft | 261 kts | 175° |
| 2026-05-08 11:56 | 42.62530 | 141.72020 | 8858 ft | 264 kts | 179° |
| 2026-05-08 11:56 | 42.60677 | 141.72160 | 9799 ft | 270 kts | 182° |
| 2026-05-08 11:56 | 42.58792 | 141.72263 | 10597 ft | 282 kts | 182° |
| 2026-05-08 11:56 | 42.56791 | 141.72369 | 11238 ft | 299 kts | 182° |
| 2026-05-08 11:57 | 42.54637 | 141.72485 | 11978 ft | 315 kts | 182° |
| 2026-05-08 11:57 | 42.52422 | 141.72604 | 12694 ft | 331 kts | 182° |
| 2026-05-08 11:57 | 42.50068 | 141.72733 | 13419 ft | 347 kts | 182° |
| 2026-05-08 11:57 | 42.47624 | 141.72865 | 14176 ft | 360 kts | 183° |
| 2026-05-08 11:58 | 42.45079 | 141.73006 | 15005 ft | 371 kts | 182° |
| 2026-05-08 11:58 | 42.42491 | 141.73151 | 16072 ft | 375 kts | 182° |
| 2026-05-08 11:58 | 42.39902 | 141.73297 | 17288 ft | 374 kts | 182° |
| 2026-05-08 11:59 | 42.34761 | 141.73589 | 19639 ft | 372 kts | 182° |
| 2026-05-08 11:59 | 42.32199 | 141.73732 | 20617 ft | 375 kts | 181° |
| 2026-05-08 11:59 | 42.29583 | 141.73879 | 21553 ft | 379 kts | 181° |
| 2026-05-08 11:59 | 42.26937 | 141.74026 | 22394 ft | 384 kts | 180° |
| 2026-05-08 12:00 | 42.24265 | 141.74176 | 23249 ft | 388 kts | 180° |
| 2026-05-08 12:00 | 42.21572 | 141.74329 | 24143 ft | 390 kts | 180° |
| 2026-05-08 12:00 | 42.18869 | 141.74481 | 24968 ft | 393 kts | 181° |
| 2026-05-08 12:00 | 42.16137 | 141.74634 | 25717 ft | 398 kts | 181° |
| 2026-05-08 12:01 | 42.13383 | 141.74788 | 26427 ft | 403 kts | 182° |
| 2026-05-08 12:01 | 42.10535 | 141.74948 | 27148 ft | 407 kts | 182° |
| 2026-05-08 12:01 | 42.07704 | 141.75107 | 27764 ft | 413 kts | 183° |
| 2026-05-08 12:01 | 42.04845 | 141.75266 | 28052 ft | 416 kts | 183° |
| 2026-05-08 12:02 | 42.01945 | 141.75429 | 28237 ft | 415 kts | 183° |
| 2026-05-08 12:02 | 41.99070 | 141.75592 | 28408 ft | 415 kts | 184° |
| 2026-05-08 12:02 | 41.96178 | 141.75754 | 28572 ft | 418 kts | 184° |
| 2026-05-08 12:02 | 41.93282 | 141.75917 | 28741 ft | 417 kts | 184° |
| 2026-05-08 12:03 | 41.90396 | 141.76091 | 28919 ft | 417 kts | 183° |
| 2026-05-08 12:03 | 41.87469 | 141.76364 | 29137 ft | 419 kts | 182° |
| 2026-05-08 12:03 | 41.84601 | 141.76643 | 29338 ft | 418 kts | 183° |
| 2026-05-08 12:03 | 41.81690 | 141.76924 | 29519 ft | 419 kts | 184° |
| 2026-05-08 12:04 | 41.78773 | 141.77202 | 29687 ft | 418 kts | 183° |
| 2026-05-08 12:04 | 41.75889 | 141.77475 | 29681 ft | 418 kts | 183° |
| 2026-05-08 12:04 | 41.70132 | 141.78018 | 29677 ft | 415 kts | 185° |
| 2026-05-08 12:05 | 41.64356 | 141.78554 | 29680 ft | 415 kts | 184° |
| 2026-05-08 12:05 | 41.58611 | 141.79086 | 29670 ft | 415 kts | 184° |
| 2026-05-08 12:06 | 41.52863 | 141.79608 | 29670 ft | 414 kts | 186° |
| 2026-05-08 12:06 | 41.47223 | 141.78842 | 29666 ft | 406 kts | 199° |
| 2026-05-08 12:07 | 41.41797 | 141.77083 | 29671 ft | 398 kts | 199° |
| 2026-05-08 12:07 | 41.36448 | 141.75337 | 29645 ft | 398 kts | 199° |
| 2026-05-08 12:08 | 41.31052 | 141.73583 | 29662 ft | 397 kts | 200° |
| 2026-05-08 12:08 | 41.25700 | 141.71845 | 29636 ft | 397 kts | 200° |
| 2026-05-08 12:09 | 41.20352 | 141.70113 | 29640 ft | 395 kts | 200° |
| 2026-05-08 12:09 | 41.14983 | 141.68376 | 29673 ft | 395 kts | 201° |
| 2026-05-08 12:10 | 41.12353 | 141.67528 | 29832 ft | 394 kts | 200° |
| 2026-05-08 12:10 | 41.09700 | 141.66672 | 30014 ft | 392 kts | 200° |
| 2026-05-08 12:10 | 41.07026 | 141.65808 | 30189 ft | 397 kts | 200° |
| 2026-05-08 12:10 | 41.04355 | 141.64947 | 30372 ft | 394 kts | 200° |
| 2026-05-08 12:11 | 41.01687 | 141.64092 | 30519 ft | 392 kts | 201° |
| 2026-05-08 12:11 | 40.99041 | 141.63238 | 30694 ft | 393 kts | 200° |
| 2026-05-08 12:11 | 40.96402 | 141.62392 | 30862 ft | 392 kts | 201° |
| 2026-05-08 12:11 | 40.93754 | 141.61542 | 31028 ft | 390 kts | 200° |
| 2026-05-08 12:12 | 40.91096 | 141.60689 | 31210 ft | 391 kts | 200° |
| 2026-05-08 12:12 | 40.89353 | 141.60130 | 31320 ft | 389 kts | 200° |
| 2026-05-08 12:12 | 40.86753 | 141.59299 | 31664 ft | 387 kts | 201° |
| 2026-05-08 12:12 | 40.84134 | 141.58458 | 32121 ft | 388 kts | 201° |
| 2026-05-08 12:13 | 40.81512 | 141.57620 | 32585 ft | 386 kts | 201° |
| 2026-05-08 12:13 | 40.78044 | 141.56512 | 33200 ft | 384 kts | 200° |
| 2026-05-08 12:13 | 40.75458 | 141.55688 | 33653 ft | 381 kts | 201° |
| 2026-05-08 12:13 | 40.72883 | 141.54868 | 34053 ft | 381 kts | 201° |
| 2026-05-08 12:14 | 40.70320 | 141.54050 | 34450 ft | 382 kts | 201° |
| 2026-05-08 12:14 | 40.67707 | 141.53217 | 34846 ft | 383 kts | 201° |
| 2026-05-08 12:14 | 40.65083 | 141.52382 | 35242 ft | 383 kts | 201° |
| 2026-05-08 12:14 | 40.62479 | 141.51553 | 35670 ft | 383 kts | 201° |
| 2026-05-08 12:15 | 40.59865 | 141.50723 | 36169 ft | 382 kts | 201° |
| 2026-05-08 12:15 | 40.57418 | 141.49947 | 36653 ft | 381 kts | 200° |
| 2026-05-08 12:15 | 40.54852 | 141.49133 | 37119 ft | 379 kts | 201° |
| 2026-05-08 12:15 | 40.52244 | 141.48306 | 37402 ft | 380 kts | 201° |
| 2026-05-08 12:16 | 40.49666 | 141.47488 | 37603 ft | 383 kts | 201° |
| 2026-05-08 12:16 | 40.47032 | 141.46652 | 37663 ft | 388 kts | 201° |
| 2026-05-08 12:16 | 40.41771 | 141.44992 | 37655 ft | 387 kts | 201° |
| 2026-05-08 12:17 | 40.36530 | 141.43339 | 37649 ft | 384 kts | 201° |
| 2026-05-08 12:17 | 40.31325 | 141.41699 | 37669 ft | 387 kts | 201° |
| 2026-05-08 12:18 | 40.26094 | 141.40056 | 37660 ft | 384 kts | 201° |
| 2026-05-08 12:18 | 40.20905 | 141.38426 | 37663 ft | 383 kts | 201° |
| 2026-05-08 12:19 | 40.15729 | 141.36801 | 37666 ft | 386 kts | 201° |
| 2026-05-08 12:19 | 40.10536 | 141.35176 | 37663 ft | 384 kts | 202° |
| 2026-05-08 12:20 | 40.05320 | 141.33546 | 37680 ft | 383 kts | 201° |
| 2026-05-08 12:20 | 40.00140 | 141.31932 | 37671 ft | 377 kts | 201° |
| 2026-05-08 12:21 | 39.94978 | 141.30232 | 37682 ft | 385 kts | 201° |
| 2026-05-08 12:21 | 39.89802 | 141.28526 | 37680 ft | 382 kts | 202° |
| 2026-05-08 12:22 | 39.84616 | 141.26819 | 37699 ft | 383 kts | 201° |
| 2026-05-08 12:22 | 39.79465 | 141.25130 | 37699 ft | 381 kts | 202° |
| 2026-05-08 12:23 | 39.74300 | 141.23434 | 37726 ft | 386 kts | 201° |
| 2026-05-08 12:23 | 39.69107 | 141.21721 | 37687 ft | 382 kts | 202° |
| 2026-05-08 12:24 | 39.63898 | 141.20026 | 37705 ft | 384 kts | 202° |
| 2026-05-08 12:24 | 39.58715 | 141.18343 | 37694 ft | 382 kts | 202° |
| 2026-05-08 12:25 | 39.53549 | 141.16663 | 37692 ft | 384 kts | 202° |
| 2026-05-08 12:25 | 39.48383 | 141.14987 | 37703 ft | 383 kts | 202° |
| 2026-05-08 12:26 | 39.43223 | 141.13313 | 37692 ft | 382 kts | 202° |
| 2026-05-08 12:26 | 39.38014 | 141.11726 | 37700 ft | 383 kts | 202° |
| 2026-05-08 12:27 | 39.32810 | 141.10162 | 37709 ft | 385 kts | 201° |
| 2026-05-08 12:27 | 39.27599 | 141.08595 | 37717 ft | 383 kts | 201° |
| 2026-05-08 12:28 | 39.22404 | 141.07033 | 37700 ft | 381 kts | 202° |
| 2026-05-08 12:28 | 39.17254 | 141.05486 | 37699 ft | 382 kts | 202° |
| 2026-05-08 12:29 | 39.12080 | 141.03931 | 37690 ft | 383 kts | 201° |
| 2026-05-08 12:29 | 39.06915 | 141.02387 | 37697 ft | 379 kts | 202° |
| 2026-05-08 12:30 | 39.01728 | 141.00830 | 37683 ft | 384 kts | 202° |
| 2026-05-08 12:30 | 38.96515 | 140.99274 | 37708 ft | 382 kts | 202° |
| 2026-05-08 12:31 | 38.91339 | 140.97729 | 37706 ft | 381 kts | 201° |
| 2026-05-08 12:31 | 38.86150 | 140.96184 | 37696 ft | 383 kts | 202° |
| 2026-05-08 12:32 | 38.80974 | 140.94644 | 37730 ft | 383 kts | 202° |
| 2026-05-08 12:32 | 38.75789 | 140.93103 | 37716 ft | 384 kts | 202° |
| 2026-05-08 12:33 | 38.70598 | 140.91563 | 37731 ft | 385 kts | 202° |
| 2026-05-08 12:33 | 38.65381 | 140.90019 | 37728 ft | 383 kts | 202° |
| 2026-05-08 12:34 | 38.60189 | 140.88484 | 37711 ft | 382 kts | 202° |
| 2026-05-08 12:34 | 38.55008 | 140.86957 | 37709 ft | 380 kts | 202° |
| 2026-05-08 12:35 | 38.49789 | 140.85414 | 37757 ft | 386 kts | 202° |
| 2026-05-08 12:35 | 38.44596 | 140.83888 | 37726 ft | 381 kts | 201° |
| 2026-05-08 12:36 | 38.39431 | 140.82369 | 37726 ft | 384 kts | 202° |
| 2026-05-08 12:36 | 38.34197 | 140.80832 | 37722 ft | 384 kts | 202° |
| 2026-05-08 12:37 | 38.29886 | 140.79572 | 37718 ft | 381 kts | 203° |
| 2026-05-08 12:37 | 38.23848 | 140.77803 | 37721 ft | 384 kts | 202° |
| 2026-05-08 12:38 | 38.18675 | 140.76294 | 37707 ft | 378 kts | 202° |
| 2026-05-08 12:38 | 38.13525 | 140.74788 | 37742 ft | 382 kts | 202° |
| 2026-05-08 12:39 | 38.08322 | 140.73273 | 37613 ft | 380 kts | 203° |
| 2026-05-08 12:39 | 38.06594 | 140.72771 | 37750 ft | 380 kts | 202° |
| 2026-05-08 12:39 | 38.04000 | 140.72012 | 37840 ft | 387 kts | 203° |
| 2026-05-08 12:40 | 38.01367 | 140.71248 | 37715 ft | 383 kts | 202° |
| 2026-05-08 12:40 | 37.97931 | 140.70254 | 37731 ft | 378 kts | 202° |
| 2026-05-08 12:40 | 37.92785 | 140.68758 | 37733 ft | 382 kts | 202° |
| 2026-05-08 12:41 | 37.87614 | 140.67261 | 37755 ft | 385 kts | 203° |
| 2026-05-08 12:41 | 37.82390 | 140.65750 | 37749 ft | 384 kts | 203° |
| 2026-05-08 12:42 | 37.77169 | 140.64241 | 37746 ft | 385 kts | 202° |
| 2026-05-08 12:42 | 37.71959 | 140.62741 | 37736 ft | 381 kts | 202° |
| 2026-05-08 12:43 | 37.66749 | 140.61237 | 37732 ft | 384 kts | 203° |
| 2026-05-08 12:43 | 37.61538 | 140.59737 | 37740 ft | 384 kts | 203° |
| 2026-05-08 12:44 | 37.56347 | 140.58244 | 37742 ft | 384 kts | 202° |
| 2026-05-08 12:44 | 37.51105 | 140.56740 | 37739 ft | 385 kts | 202° |
| 2026-05-08 12:45 | 37.45916 | 140.55254 | 37740 ft | 384 kts | 202° |
| 2026-05-08 12:45 | 37.40694 | 140.53760 | 37727 ft | 383 kts | 203° |
| 2026-05-08 12:46 | 37.35489 | 140.52271 | 37691 ft | 382 kts | 202° |
| 2026-05-08 12:46 | 37.32909 | 140.51538 | 37169 ft | 378 kts | 202° |
| 2026-05-08 12:46 | 37.30373 | 140.50815 | 36571 ft | 374 kts | 203° |
| 2026-05-08 12:47 | 37.27843 | 140.50095 | 35982 ft | 370 kts | 203° |
| 2026-05-08 12:47 | 37.25353 | 140.49385 | 35385 ft | 370 kts | 203° |
| 2026-05-08 12:47 | 37.22781 | 140.48640 | 34741 ft | 392 kts | 203° |
| 2026-05-08 12:47 | 37.20061 | 140.47861 | 34025 ft | 400 kts | 202° |
| 2026-05-08 12:48 | 37.17352 | 140.47095 | 33321 ft | 398 kts | 203° |
| 2026-05-08 12:48 | 37.14662 | 140.46335 | 32619 ft | 397 kts | 203° |
| 2026-05-08 12:48 | 37.11940 | 140.45561 | 31875 ft | 404 kts | 203° |
| 2026-05-08 12:48 | 37.09194 | 140.44780 | 31124 ft | 411 kts | 203° |
| 2026-05-08 12:49 | 37.06397 | 140.43986 | 30377 ft | 415 kts | 203° |
| 2026-05-08 12:49 | 37.03602 | 140.43201 | 29944 ft | 409 kts | 203° |
| 2026-05-08 12:49 | 37.00816 | 140.42416 | 29531 ft | 407 kts | 203° |
| 2026-05-08 12:49 | 36.98080 | 140.41644 | 29078 ft | 407 kts | 204° |
| 2026-05-08 12:50 | 36.95337 | 140.40869 | 28615 ft | 407 kts | 203° |
| 2026-05-08 12:50 | 36.92564 | 140.40088 | 28132 ft | 405 kts | 203° |
| 2026-05-08 12:50 | 36.89819 | 140.39314 | 27649 ft | 401 kts | 203° |
| 2026-05-08 12:50 | 36.87110 | 140.38553 | 27178 ft | 397 kts | 203° |
| 2026-05-08 12:51 | 36.84412 | 140.37793 | 26697 ft | 396 kts | 203° |
| 2026-05-08 12:51 | 36.79100 | 140.36299 | 25720 ft | 392 kts | 202° |
| 2026-05-08 12:51 | 36.76443 | 140.35553 | 25223 ft | 388 kts | 202° |
| 2026-05-08 12:52 | 36.73811 | 140.34816 | 24735 ft | 386 kts | 201° |
| 2026-05-08 12:52 | 36.68500 | 140.33733 | 23780 ft | 387 kts | 198° |
| 2026-05-08 12:52 | 36.65867 | 140.33221 | 23280 ft | 385 kts | 198° |
| 2026-05-08 12:53 | 36.63212 | 140.32701 | 22775 ft | 382 kts | 198° |
| 2026-05-08 12:53 | 36.60612 | 140.32188 | 22290 ft | 380 kts | 198° |
| 2026-05-08 12:53 | 36.57989 | 140.31668 | 21783 ft | 378 kts | 198° |
| 2026-05-08 12:53 | 36.55397 | 140.31154 | 21270 ft | 376 kts | 197° |
| 2026-05-08 12:54 | 36.52855 | 140.30647 | 20763 ft | 373 kts | 197° |
| 2026-05-08 12:54 | 36.50299 | 140.30122 | 20244 ft | 369 kts | 199° |
| 2026-05-08 12:54 | 36.47841 | 140.29253 | 19736 ft | 362 kts | 207° |
| 2026-05-08 12:54 | 36.45580 | 140.27933 | 19233 ft | 358 kts | 215° |
| 2026-05-08 12:55 | 36.43545 | 140.26205 | 18728 ft | 352 kts | 222° |
| 2026-05-08 12:55 | 36.41793 | 140.24153 | 18243 ft | 347 kts | 230° |
| 2026-05-08 12:55 | 36.40322 | 140.21802 | 17757 ft | 345 kts | 237° |
| 2026-05-08 12:55 | 36.39160 | 140.19202 | 17262 ft | 344 kts | 244° |
| 2026-05-08 12:56 | 36.38345 | 140.16464 | 16777 ft | 343 kts | 252° |
| 2026-05-08 12:56 | 36.37783 | 140.13603 | 16297 ft | 342 kts | 254° |
| 2026-05-08 12:56 | 36.37179 | 140.10731 | 15790 ft | 338 kts | 249° |
| 2026-05-08 12:56 | 36.36244 | 140.08081 | 15305 ft | 335 kts | 240° |
| 2026-05-08 12:57 | 36.34960 | 140.05667 | 14815 ft | 334 kts | 232° |
| 2026-05-08 12:57 | 36.33387 | 140.03581 | 14328 ft | 333 kts | 224° |
| 2026-05-08 12:57 | 36.31528 | 140.01831 | 13834 ft | 334 kts | 216° |
| 2026-05-08 12:57 | 36.29472 | 140.00503 | 13371 ft | 336 kts | 206° |
| 2026-05-08 12:58 | 36.27236 | 139.99625 | 13045 ft | 341 kts | 198° |
| 2026-05-08 12:58 | 36.24872 | 139.99214 | 12636 ft | 347 kts | 189° |
| 2026-05-08 12:58 | 36.22453 | 139.99127 | 12135 ft | 346 kts | 187° |
| 2026-05-08 12:58 | 36.20041 | 139.99046 | 11619 ft | 346 kts | 187° |
| 2026-05-08 12:59 | 36.17627 | 139.98930 | 11082 ft | 345 kts | 187° |
| 2026-05-08 12:59 | 36.15249 | 139.98796 | 10734 ft | 337 kts | 187° |
| 2026-05-08 12:59 | 36.12960 | 139.98660 | 10646 ft | 322 kts | 187° |
| 2026-05-08 12:59 | 36.10780 | 139.98524 | 10541 ft | 308 kts | 188° |
| 2026-05-08 13:00 | 36.08671 | 139.98387 | 10398 ft | 297 kts | 188° |
| 2026-05-08 13:00 | 36.06623 | 139.98459 | 10246 ft | 292 kts | 174° |
| 2026-05-08 13:00 | 36.04718 | 139.99144 | 10135 ft | 285 kts | 167° |
| 2026-05-08 13:00 | 36.02882 | 139.99951 | 10027 ft | 275 kts | 166° |
| 2026-05-08 13:01 | 36.01107 | 140.00754 | 9895 ft | 265 kts | 166° |
| 2026-05-08 13:01 | 35.99385 | 140.01532 | 9557 ft | 265 kts | 166° |
| 2026-05-08 13:01 | 35.97631 | 140.02321 | 9194 ft | 267 kts | 165° |
| 2026-05-08 13:01 | 35.95889 | 140.03107 | 8860 ft | 266 kts | 165° |
| 2026-05-08 13:02 | 35.94152 | 140.03891 | 8536 ft | 265 kts | 165° |
| 2026-05-08 13:02 | 35.92415 | 140.04674 | 8210 ft | 265 kts | 165° |
| 2026-05-08 13:02 | 35.90688 | 140.05452 | 7899 ft | 263 kts | 165° |
| 2026-05-08 13:02 | 35.88988 | 140.06216 | 7583 ft | 261 kts | 165° |
| 2026-05-08 13:03 | 35.87285 | 140.06984 | 7268 ft | 259 kts | 165° |
| 2026-05-08 13:03 | 35.85607 | 140.07739 | 6962 ft | 257 kts | 164° |
| 2026-05-08 13:03 | 35.83937 | 140.08490 | 6654 ft | 255 kts | 165° |
| 2026-05-08 13:03 | 35.82256 | 140.09245 | 6355 ft | 254 kts | 165° |
| 2026-05-08 13:04 | 35.80606 | 140.09987 | 6061 ft | 252 kts | 165° |
| 2026-05-08 13:04 | 35.78957 | 140.10728 | 5764 ft | 251 kts | 165° |
| 2026-05-08 13:04 | 35.77358 | 140.11449 | 5481 ft | 243 kts | 165° |
| 2026-05-08 13:04 | 35.75781 | 140.12158 | 5209 ft | 236 kts | 165° |
| 2026-05-08 13:05 | 35.74244 | 140.12848 | 5117 ft | 234 kts | 165° |
| 2026-05-08 13:05 | 35.72709 | 140.13536 | 5052 ft | 233 kts | 165° |
| 2026-05-08 13:05 | 35.71197 | 140.14214 | 5010 ft | 234 kts | 166° |
| 2026-05-08 13:05 | 35.69652 | 140.14905 | 5002 ft | 232 kts | 166° |
| 2026-05-08 13:06 | 35.68176 | 140.15570 | 4993 ft | 216 kts | 167° |
| 2026-05-08 13:06 | 35.66799 | 140.16183 | 5008 ft | 207 kts | 167° |
| 2026-05-08 13:06 | 35.65463 | 140.16768 | 5012 ft | 200 kts | 172° |
| 2026-05-08 13:06 | 35.64166 | 140.16866 | 5002 ft | 178 kts | 198° |
| 2026-05-08 13:07 | 35.63072 | 140.16325 | 4997 ft | 162 kts | 221° |
| 2026-05-08 13:07 | 35.62290 | 140.15358 | 5001 ft | 157 kts | 240° |
| 2026-05-08 13:07 | 35.61696 | 140.14262 | 5003 ft | 153 kts | 240° |
| 2026-05-08 13:07 | 35.61127 | 140.13150 | 5021 ft | 152 kts | 242° |
| 2026-05-08 13:08 | 35.60636 | 140.12024 | 5005 ft | 150 kts | 253° |
| 2026-05-08 13:08 | 35.60458 | 140.10742 | 5007 ft | 150 kts | 266° |
| 2026-05-08 13:08 | 35.60440 | 140.09465 | 5008 ft | 151 kts | 269° |
| 2026-05-08 13:08 | 35.60446 | 140.08165 | 5002 ft | 153 kts | 269° |
| 2026-05-08 13:09 | 35.60451 | 140.06848 | 4868 ft | 157 kts | 269° |
| 2026-05-08 13:09 | 35.60453 | 140.05516 | 4632 ft | 155 kts | 270° |
| 2026-05-08 13:09 | 35.60454 | 140.04204 | 4397 ft | 152 kts | 270° |
| 2026-05-08 13:09 | 35.60451 | 140.02914 | 4167 ft | 149 kts | 270° |
| 2026-05-08 13:10 | 35.60448 | 140.01665 | 4009 ft | 141 kts | 271° |
| 2026-05-08 13:10 | 35.60447 | 140.00468 | 3810 ft | 139 kts | 271° |
| 2026-05-08 13:10 | 35.60444 | 139.99293 | 3604 ft | 137 kts | 271° |
| 2026-05-08 13:10 | 35.60441 | 139.98128 | 3395 ft | 135 kts | 271° |
| 2026-05-08 13:11 | 35.60437 | 139.96962 | 3193 ft | 137 kts | 271° |
| 2026-05-08 13:11 | 35.60434 | 139.95790 | 2986 ft | 139 kts | 271° |
| 2026-05-08 13:11 | 35.60431 | 139.94620 | 2766 ft | 137 kts | 270° |
| 2026-05-08 13:11 | 35.60426 | 139.93453 | 2536 ft | 136 kts | 269° |
| 2026-05-08 13:12 | 35.60422 | 139.92297 | 2331 ft | 134 kts | 269° |
| 2026-05-08 13:12 | 35.60418 | 139.91151 | 2117 ft | 135 kts | 268° |
| 2026-05-08 13:12 | 35.60415 | 139.89995 | 1925 ft | 135 kts | 268° |
| 2026-05-08 13:12 | 35.60410 | 139.88841 | 1713 ft | 135 kts | 268° |
| 2026-05-08 13:13 | 35.60406 | 139.87686 | 1511 ft | 135 kts | 267° |
| 2026-05-08 13:13 | 35.60401 | 139.86525 | 1304 ft | 136 kts | 267° |
| 2026-05-08 13:13 | 35.60401 | 139.85367 | 1107 ft | 137 kts | 267° |
| 2026-05-08 13:13 | 35.60444 | 139.84178 | 905 ft | 138 kts | 269° |
| 2026-05-08 13:14 | 35.60455 | 139.83011 | 807 ft | 136 kts | 260° |
| 2026-05-08 13:14 | 35.60218 | 139.81873 | 730 ft | 135 kts | 244° |
| 2026-05-08 13:14 | 35.59780 | 139.80861 | 640 ft | 135 kts | 236° |
| 2026-05-08 13:14 | 35.59218 | 139.79976 | 472 ft | 131 kts | 226° |
| 2026-05-08 13:15 | 35.58542 | 139.79245 | 427 ft | 130 kts | 218° |
| 2026-05-08 13:15 | 35.57791 | 139.78612 | 277 ft | 129 kts | 214° |
| 2026-05-08 13:15 | 35.57056 | 139.77975 | 127 ft | 130 kts | 215° |
| 2026-05-08 13:15 | 35.56329 | 139.77356 | 35 ft | 118 kts | 214° |
| 2026-05-08 13:16 | 35.55767 | 139.76869 | 34 ft | 74 kts | 215° |
| 2026-05-08 13:16 | 35.55501 | 139.76642 | 34 ft | 22 kts | 215° |
| 2026-05-08 13:16 | 35.55391 | 139.76549 | 34 ft | 11 kts | 214° |
| 2026-05-08 13:16 | 35.55326 | 139.76503 | 34 ft | 10 kts | 205° |
| 2026-05-08 13:17 | 35.55283 | 139.76486 | 34 ft | 9 kts | 196° |
| 2026-05-08 13:17 | 35.55156 | 139.76456 | 34 ft | 6 kts | 192° |
| 2026-05-08 13:17 | 35.55112 | 139.76454 | 34 ft | 6 kts | 168° |
| 2026-05-08 13:18 | 35.55078 | 139.76477 | 34 ft | 5 kts | 131° |
| 2026-05-08 13:18 | 35.55070 | 139.76517 | 34 ft | 5 kts | 80° |
| 2026-05-08 13:18 | 35.55086 | 139.76567 | 34 ft | 7 kts | 64° |
| 2026-05-08 13:18 | 35.55111 | 139.76627 | 34 ft | 8 kts | 59° |
| 2026-05-08 13:19 | 35.55143 | 139.76692 | 34 ft | 9 kts | 59° |
| 2026-05-08 13:19 | 35.55177 | 139.76764 | 34 ft | 10 kts | 59° |
| 2026-05-08 13:19 | 35.55214 | 139.76842 | 34 ft | 11 kts | 60° |
| 2026-05-08 13:19 | 35.55254 | 139.76927 | 34 ft | 11 kts | 60° |
| 2026-05-08 13:20 | 35.55278 | 139.77019 | 34 ft | 11 kts | 108° |
| 2026-05-08 13:20 | 35.55224 | 139.77078 | 34 ft | 9 kts | 154° |
| 2026-05-08 13:20 | 35.55167 | 139.77115 | 34 ft | 8 kts | 152° |
| 2026-05-08 13:20 | 35.55119 | 139.77148 | 34 ft | 7 kts | 150° |
| 2026-05-08 13:21 | 35.55078 | 139.77177 | 34 ft | 6 kts | 150° |
| 2026-05-08 13:21 | 35.55038 | 139.77205 | 34 ft | 6 kts | 150° |
| 2026-05-08 13:21 | 35.54999 | 139.77232 | 34 ft | 6 kts | 149° |
| 2026-05-08 13:21 | 35.54960 | 139.77261 | 34 ft | 6 kts | 150° |
| 2026-05-08 13:22 | 35.54920 | 139.77290 | 34 ft | 6 kts | 150° |
| 2026-05-08 13:22 | 35.54878 | 139.77316 | 34 ft | 6 kts | 163° |
| 2026-05-08 13:22 | 35.54837 | 139.77301 | 34 ft | 7 kts | 221° |
| 2026-05-08 13:22 | 35.54806 | 139.77249 | 34 ft | 7 kts | 239° |
| 2026-05-08 13:23 | 35.54780 | 139.77196 | 34 ft | 7 kts | 240° |
| 2026-05-08 13:23 | 35.54755 | 139.77142 | 34 ft | 7 kts | 240° |
| 2026-05-08 13:23 | 35.54724 | 139.77097 | 34 ft | 6 kts | 211° |
| 2026-05-08 13:23 | 35.54682 | 139.77092 | 34 ft | 5 kts | 163° |
| 2026-05-08 13:24 | 35.54648 | 139.77104 | 34 ft | 4 kts | 186° |
| 2026-05-08 13:24 | 35.54620 | 139.77086 | 34 ft | 4 kts | 223° |
| 2026-05-08 13:24 | 35.54602 | 139.77055 | 34 ft | 4 kts | 234° |
| 2026-05-08 13:24 | 35.54588 | 139.77026 | 34 ft | 0 kts | 239° |
| 2026-05-08 13:25 | 35.54587 | 139.77025 | 34 ft | 0 kts | 239° |
| 2026-05-08 13:25 | 35.54585 | 139.77022 | 34 ft | 0 kts | 239° |